Terminal Aerodrome Forecast
Issued by NWS Wakefield, VA

Home | Current Version | Previous Version | Text Only | Print | Product List | Glossary On
Versions: 1 2 3 4 5 6 7 8 9 10 11 12 13 14 15
000
FTUS41 KAKQ 011100
TAFECG
TAF
KECG 011127Z 0112/0212 02007KT P6SM OVC070
     FM011300 03008KT 6SM -RA BR OVC025
     FM011600 07007KT 4SM -RA BR OVC015
     FM012100 15007KT 2SM -RA BR OVC007
     FM020300 23008KT 4SM BR OVC007=

USA.gov is the U.S. government's official web portal to all federal, state and local government web resources and services.